sensor_id;sensor_type;location;lat;lon;timestamp;temperature;humidity
12043;DHT22;6082;49.306;12.862;2024-01-30T00:01:20;-1.30;99.90
12043;DHT22;6082;49.306;12.862;2024-01-30T00:03:46;-1.30;99.90
12043;DHT22;6082;49.306;12.862;2024-01-30T00:06:12;-1.30;99.90
12043;DHT22;6082;49.306;12.862;2024-01-30T00:08:38;-1.30;99.90
12043;DHT22;6082;49.306;12.862;2024-01-30T00:11:04;-1.30;99.90
12043;DHT22;6082;49.306;12.862;2024-01-30T00:13:29;-1.40;99.90
12043;DHT22;6082;49.306;12.862;2024-01-30T00:15:55;-1.50;99.90
12043;DHT22;6082;49.306;12.862;2024-01-30T00:18:21;-1.50;99.90
12043;DHT22;6082;49.306;12.862;2024-01-30T00:20:47;-1.60;99.90
12043;DHT22;6082;49.306;12.862;2024-01-30T00:23:13;-1.60;99.90
12043;DHT22;6082;49.306;12.862;2024-01-30T00:25:39;-1.70;99.90
12043;DHT22;6082;49.306;12.862;2024-01-30T00:28:04;-1.60;99.90
12043;DHT22;6082;49.306;12.862;2024-01-30T00:30:30;-1.60;99.90
12043;DHT22;6082;49.306;12.862;2024-01-30T00:32:56;-1.60;99.90
12043;DHT22;6082;49.306;12.862;2024-01-30T00:35:22;-1.60;99.90
12043;DHT22;6082;49.306;12.862;2024-01-30T00:37:48;-1.60;99.90
12043;DHT22;6082;49.306;12.862;2024-01-30T00:40:14;-1.70;99.90
12043;DHT22;6082;49.306;12.862;2024-01-30T00:42:44;-1.60;99.90
12043;DHT22;6082;49.306;12.862;2024-01-30T00:45:16;-1.60;99.90
12043;DHT22;6082;49.306;12.862;2024-01-30T00:47:43;-1.60;99.90
12043;DHT22;6082;49.306;12.862;2024-01-30T00:50:09;-1.70;99.90
12043;DHT22;6082;49.306;12.862;2024-01-30T00:52:35;-1.60;99.90
12043;DHT22;6082;49.306;12.862;2024-01-30T00:55:02;-1.60;99.90
12043;DHT22;6082;49.306;12.862;2024-01-30T00:57:28;-1.60;99.90
12043;DHT22;6082;49.306;12.862;2024-01-30T00:59:54;-1.60;99.90
12043;DHT22;6082;49.306;12.862;2024-01-30T01:02:20;-1.60;99.90
12043;DHT22;6082;49.306;12.862;2024-01-30T01:04:46;-1.60;99.90
12043;DHT22;6082;49.306;12.862;2024-01-30T01:07:11;-1.70;99.90
12043;DHT22;6082;49.306;12.862;2024-01-30T01:09:37;-1.70;99.90
12043;DHT22;6082;49.306;12.862;2024-01-30T01:12:04;-1.70;99.90
12043;DHT22;6082;49.306;12.862;2024-01-30T01:14:30;-1.70;99.90
12043;DHT22;6082;49.306;12.862;2024-01-30T01:16:56;-1.80;99.90
12043;DHT22;6082;49.306;12.862;2024-01-30T01:19:22;-1.80;99.90
12043;DHT22;6082;49.306;12.862;2024-01-30T01:21:48;-1.70;99.90
12043;DHT22;6082;49.306;12.862;2024-01-30T01:24:13;-1.80;99.90
12043;DHT22;6082;49.306;12.862;2024-01-30T01:26:39;-1.80;99.90
12043;DHT22;6082;49.306;12.862;2024-01-30T01:29:06;-1.80;99.90
12043;DHT22;6082;49.306;12.862;2024-01-30T01:31:38;-1.80;99.90
12043;DHT22;6082;49.306;12.862;2024-01-30T01:34:11;-1.90;99.90
12043;DHT22;6082;49.306;12.862;2024-01-30T01:36:38;-1.90;99.90
12043;DHT22;6082;49.306;12.862;2024-01-30T01:39:04;-1.90;99.90
12043;DHT22;6082;49.306;12.862;2024-01-30T01:41:33;-1.90;99.90
12043;DHT22;6082;49.306;12.862;2024-01-30T01:43:59;-1.90;99.90
12043;DHT22;6082;49.306;12.862;2024-01-30T01:46:31;-1.90;99.90
12043;DHT22;6082;49.306;12.862;2024-01-30T01:48:57;-1.90;99.90
12043;DHT22;6082;49.306;12.862;2024-01-30T01:51:25;-2.00;99.90
12043;DHT22;6082;49.306;12.862;2024-01-30T01:53:54;-2.00;99.90
12043;DHT22;6082;49.306;12.862;2024-01-30T01:56:21;-2.00;99.90
12043;DHT22;6082;49.306;12.862;2024-01-30T01:58:48;-2.00;99.90
12043;DHT22;6082;49.306;12.862;2024-01-30T02:01:16;-2.00;99.90
12043;DHT22;6082;49.306;12.862;2024-01-30T02:03:42;-2.00;99.90
12043;DHT22;6082;49.306;12.862;2024-01-30T02:06:08;-2.10;99.90
12043;DHT22;6082;49.306;12.862;2024-01-30T02:08:34;-2.10;99.90
12043;DHT22;6082;49.306;12.862;2024-01-30T02:11:00;-2.10;99.90
12043;DHT22;6082;49.306;12.862;2024-01-30T02:13:26;-2.10;99.90
12043;DHT22;6082;49.306;12.862;2024-01-30T02:15:52;-2.10;99.90
12043;DHT22;6082;49.306;12.862;2024-01-30T02:18:20;-2.10;99.90
12043;DHT22;6082;49.306;12.862;2024-01-30T02:20:47;-2.20;99.90
12043;DHT22;6082;49.306;12.862;2024-01-30T02:23:15;-2.20;99.90
12043;DHT22;6082;49.306;12.862;2024-01-30T02:25:42;-2.20;99.90
12043;DHT22;6082;49.306;12.862;2024-01-30T02:28:12;-2.20;99.90
12043;DHT22;6082;49.306;12.862;2024-01-30T02:30:39;-2.20;99.90
12043;DHT22;6082;49.306;12.862;2024-01-30T02:33:04;-2.20;99.90
12043;DHT22;6082;49.306;12.862;2024-01-30T02:35:31;-2.30;99.90
12043;DHT22;6082;49.306;12.862;2024-01-30T02:37:56;-2.20;99.90
12043;DHT22;6082;49.306;12.862;2024-01-30T02:40:22;-2.20;99.90
12043;DHT22;6082;49.306;12.862;2024-01-30T02:42:48;-2.20;99.90
12043;DHT22;6082;49.306;12.862;2024-01-30T02:45:17;-2.20;99.90
12043;DHT22;6082;49.306;12.862;2024-01-30T02:47:43;-2.20;99.90
12043;DHT22;6082;49.306;12.862;2024-01-30T02:50:09;-2.20;99.90
12043;DHT22;6082;49.306;12.862;2024-01-30T02:52:35;-2.20;99.90
12043;DHT22;6082;49.306;12.862;2024-01-30T02:55:01;-1.80;99.90
12043;DHT22;6082;49.306;12.862;2024-01-30T02:57:30;-2.20;99.90
12043;DHT22;6082;49.306;12.862;2024-01-30T02:59:56;-2.20;99.90
12043;DHT22;6082;49.306;12.862;2024-01-30T03:02:22;-2.30;99.90
12043;DHT22;6082;49.306;12.862;2024-01-30T03:04:47;-2.30;99.90
12043;DHT22;6082;49.306;12.862;2024-01-30T03:07:13;-2.30;99.90
12043;DHT22;6082;49.306;12.862;2024-01-30T03:09:41;-2.30;99.90
12043;DHT22;6082;49.306;12.862;2024-01-30T03:12:09;-2.30;99.90
12043;DHT22;6082;49.306;12.862;2024-01-30T03:14:35;-2.30;99.90
12043;DHT22;6082;49.306;12.862;2024-01-30T03:17:00;-2.20;99.90
12043;DHT22;6082;49.306;12.862;2024-01-30T03:19:26;-2.20;99.90
12043;DHT22;6082;49.306;12.862;2024-01-30T03:21:52;-2.30;99.90
12043;DHT22;6082;49.306;12.862;2024-01-30T03:24:18;-2.30;99.90
12043;DHT22;6082;49.306;12.862;2024-01-30T03:26:44;-2.30;99.90
12043;DHT22;6082;49.306;12.862;2024-01-30T03:29:09;-2.30;99.90
12043;DHT22;6082;49.306;12.862;2024-01-30T03:31:35;-2.30;99.90
12043;DHT22;6082;49.306;12.862;2024-01-30T03:34:01;-2.40;99.90
12043;DHT22;6082;49.306;12.862;2024-01-30T03:36:28;-2.40;99.90
12043;DHT22;6082;49.306;12.862;2024-01-30T03:38:54;-2.40;99.90
12043;DHT22;6082;49.306;12.862;2024-01-30T03:41:20;-2.40;99.90
12043;DHT22;6082;49.306;12.862;2024-01-30T03:43:46;-2.40;99.90
12043;DHT22;6082;49.306;12.862;2024-01-30T03:46:12;-2.40;99.90
12043;DHT22;6082;49.306;12.862;2024-01-30T03:48:39;-2.40;99.90
12043;DHT22;6082;49.306;12.862;2024-01-30T03:51:05;-2.40;99.90
12043;DHT22;6082;49.306;12.862;2024-01-30T03:53:31;-2.40;99.90
12043;DHT22;6082;49.306;12.862;2024-01-30T03:55:57;-2.40;99.90
12043;DHT22;6082;49.306;12.862;2024-01-30T03:58:23;-2.40;99.90
12043;DHT22;6082;49.306;12.862;2024-01-30T04:00:49;-2.40;99.90
12043;DHT22;6082;49.306;12.862;2024-01-30T04:03:15;-2.40;99.90
12043;DHT22;6082;49.306;12.862;2024-01-30T04:05:45;-2.40;99.90
12043;DHT22;6082;49.306;12.862;2024-01-30T04:08:11;-2.40;99.90
12043;DHT22;6082;49.306;12.862;2024-01-30T04:10:36;-2.50;99.90
12043;DHT22;6082;49.306;12.862;2024-01-30T04:13:02;-2.50;99.90
12043;DHT22;6082;49.306;12.862;2024-01-30T04:15:28;-2.50;99.90
12043;DHT22;6082;49.306;12.862;2024-01-30T04:17:57;-2.50;99.90
12043;DHT22;6082;49.306;12.862;2024-01-30T04:20:24;-2.50;99.90
12043;DHT22;6082;49.306;12.862;2024-01-30T04:22:52;-2.60;99.90
12043;DHT22;6082;49.306;12.862;2024-01-30T04:25:17;-2.60;99.90
12043;DHT22;6082;49.306;12.862;2024-01-30T04:27:43;-2.70;99.90
12043;DHT22;6082;49.306;12.862;2024-01-30T04:30:10;-2.70;99.90
12043;DHT22;6082;49.306;12.862;2024-01-30T04:32:38;-2.80;99.90
12043;DHT22;6082;49.306;12.862;2024-01-30T04:35:04;-2.80;99.90
12043;DHT22;6082;49.306;12.862;2024-01-30T04:37:30;-2.80;99.90
12043;DHT22;6082;49.306;12.862;2024-01-30T04:39:56;-2.80;99.90
12043;DHT22;6082;49.306;12.862;2024-01-30T04:42:22;-2.80;99.90
12043;DHT22;6082;49.306;12.862;2024-01-30T04:44:48;-2.80;99.90
12043;DHT22;6082;49.306;12.862;2024-01-30T04:47:13;-2.90;99.90
12043;DHT22;6082;49.306;12.862;2024-01-30T04:49:39;-2.90;99.90
12043;DHT22;6082;49.306;12.862;2024-01-30T04:52:06;-2.90;99.90
12043;DHT22;6082;49.306;12.862;2024-01-30T04:54:32;-2.90;99.90
12043;DHT22;6082;49.306;12.862;2024-01-30T04:56:58;-2.90;99.90
12043;DHT22;6082;49.306;12.862;2024-01-30T04:59:24;-2.90;99.90
12043;DHT22;6082;49.306;12.862;2024-01-30T05:01:50;-3.00;99.90
12043;DHT22;6082;49.306;12.862;2024-01-30T05:04:15;-3.00;99.90
12043;DHT22;6082;49.306;12.862;2024-01-30T05:06:42;-3.10;99.90
12043;DHT22;6082;49.306;12.862;2024-01-30T05:09:08;-3.10;99.90
12043;DHT22;6082;49.306;12.862;2024-01-30T05:11:41;-3.20;99.90
12043;DHT22;6082;49.306;12.862;2024-01-30T05:14:07;-3.30;99.90
12043;DHT22;6082;49.306;12.862;2024-01-30T05:16:34;-3.30;99.90
12043;DHT22;6082;49.306;12.862;2024-01-30T05:19:00;-3.30;99.90
12043;DHT22;6082;49.306;12.862;2024-01-30T05:21:26;-3.30;99.90
12043;DHT22;6082;49.306;12.862;2024-01-30T05:23:52;-3.20;99.90
12043;DHT22;6082;49.306;12.862;2024-01-30T05:26:18;-3.20;99.90
12043;DHT22;6082;49.306;12.862;2024-01-30T05:28:44;-3.20;99.90
12043;DHT22;6082;49.306;12.862;2024-01-30T05:31:13;-3.20;99.90
12043;DHT22;6082;49.306;12.862;2024-01-30T05:33:40;-3.10;99.90
12043;DHT22;6082;49.306;12.862;2024-01-30T05:36:06;-3.10;99.90
12043;DHT22;6082;49.306;12.862;2024-01-30T05:38:32;-3.10;99.90
12043;DHT22;6082;49.306;12.862;2024-01-30T05:40:58;-3.20;99.90
12043;DHT22;6082;49.306;12.862;2024-01-30T05:43:24;-3.20;99.90
12043;DHT22;6082;49.306;12.862;2024-01-30T05:45:51;-3.20;99.90
12043;DHT22;6082;49.306;12.862;2024-01-30T05:48:17;-3.20;99.90
12043;DHT22;6082;49.306;12.862;2024-01-30T05:50:43;-3.20;99.90
12043;DHT22;6082;49.306;12.862;2024-01-30T05:53:09;-3.20;99.90
12043;DHT22;6082;49.306;12.862;2024-01-30T05:55:35;-3.20;99.90
12043;DHT22;6082;49.306;12.862;2024-01-30T05:58:00;-3.20;99.90
12043;DHT22;6082;49.306;12.862;2024-01-30T06:00:26;-3.20;99.90
12043;DHT22;6082;49.306;12.862;2024-01-30T06:02:52;-3.30;99.90
12043;DHT22;6082;49.306;12.862;2024-01-30T06:05:18;-3.30;99.90
12043;DHT22;6082;49.306;12.862;2024-01-30T06:07:44;-3.30;99.90
12043;DHT22;6082;49.306;12.862;2024-01-30T06:10:09;-3.30;99.90
12043;DHT22;6082;49.306;12.862;2024-01-30T06:12:35;-3.30;99.90
12043;DHT22;6082;49.306;12.862;2024-01-30T06:15:02;-3.30;99.90
12043;DHT22;6082;49.306;12.862;2024-01-30T06:17:28;-3.30;99.90
12043;DHT22;6082;49.306;12.862;2024-01-30T06:19:54;-3.30;99.90
12043;DHT22;6082;49.306;12.862;2024-01-30T06:22:20;-3.30;99.90
12043;DHT22;6082;49.306;12.862;2024-01-30T06:24:46;-3.30;99.90
12043;DHT22;6082;49.306;12.862;2024-01-30T06:27:14;-3.30;99.90
12043;DHT22;6082;49.306;12.862;2024-01-30T06:29:41;-3.30;99.90
12043;DHT22;6082;49.306;12.862;2024-01-30T06:32:08;-3.30;99.90
12043;DHT22;6082;49.306;12.862;2024-01-30T06:34:33;-3.30;99.90
12043;DHT22;6082;49.306;12.862;2024-01-30T06:36:59;-3.40;99.90
12043;DHT22;6082;49.306;12.862;2024-01-30T06:39:26;-3.40;99.90
12043;DHT22;6082;49.306;12.862;2024-01-30T06:41:52;-3.40;99.90
12043;DHT22;6082;49.306;12.862;2024-01-30T06:44:18;-3.40;99.90
12043;DHT22;6082;49.306;12.862;2024-01-30T06:46:44;-3.40;99.90
12043;DHT22;6082;49.306;12.862;2024-01-30T06:49:10;-3.40;99.90
12043;DHT22;6082;49.306;12.862;2024-01-30T06:51:39;-3.40;99.90
12043;DHT22;6082;49.306;12.862;2024-01-30T06:54:04;-3.40;99.90
12043;DHT22;6082;49.306;12.862;2024-01-30T06:56:30;-3.40;99.90
12043;DHT22;6082;49.306;12.862;2024-01-30T06:58:56;-3.40;99.90
12043;DHT22;6082;49.306;12.862;2024-01-30T07:01:28;-3.40;99.90
12043;DHT22;6082;49.306;12.862;2024-01-30T07:03:54;-3.40;99.90
12043;DHT22;6082;49.306;12.862;2024-01-30T07:06:20;-3.40;99.90
12043;DHT22;6082;49.306;12.862;2024-01-30T07:08:48;-3.40;99.90
12043;DHT22;6082;49.306;12.862;2024-01-30T07:11:21;-3.40;99.90
12043;DHT22;6082;49.306;12.862;2024-01-30T07:13:52;-3.40;99.90
12043;DHT22;6082;49.306;12.862;2024-01-30T07:16:18;-3.40;99.90
12043;DHT22;6082;49.306;12.862;2024-01-30T07:18:44;-3.40;99.90
12043;DHT22;6082;49.306;12.862;2024-01-30T07:21:10;-3.40;99.90
12043;DHT22;6082;49.306;12.862;2024-01-30T07:23:36;-3.40;99.90
12043;DHT22;6082;49.306;12.862;2024-01-30T07:26:05;-3.30;99.90
12043;DHT22;6082;49.306;12.862;2024-01-30T07:28:32;-3.30;99.90
12043;DHT22;6082;49.306;12.862;2024-01-30T07:30:58;-3.30;99.90
12043;DHT22;6082;49.306;12.862;2024-01-30T07:33:24;-3.40;99.90
12043;DHT22;6082;49.306;12.862;2024-01-30T07:35:51;-3.30;99.90
12043;DHT22;6082;49.306;12.862;2024-01-30T07:38:17;-3.30;99.90
12043;DHT22;6082;49.306;12.862;2024-01-30T07:40:43;-3.30;99.90
12043;DHT22;6082;49.306;12.862;2024-01-30T07:43:09;-3.20;99.90
12043;DHT22;6082;49.306;12.862;2024-01-30T07:45:35;-3.20;99.90
12043;DHT22;6082;49.306;12.862;2024-01-30T07:48:03;-3.20;99.90
12043;DHT22;6082;49.306;12.862;2024-01-30T07:50:28;-3.10;99.90
12043;DHT22;6082;49.306;12.862;2024-01-30T07:52:56;-3.00;99.90
12043;DHT22;6082;49.306;12.862;2024-01-30T07:55:22;-2.90;99.90
12043;DHT22;6082;49.306;12.862;2024-01-30T07:57:54;-2.90;99.90
12043;DHT22;6082;49.306;12.862;2024-01-30T08:00:21;-2.90;99.90
12043;DHT22;6082;49.306;12.862;2024-01-30T08:02:53;-2.90;99.90
12043;DHT22;6082;49.306;12.862;2024-01-30T08:05:22;-2.80;99.90
12043;DHT22;6082;49.306;12.862;2024-01-30T08:07:49;-2.80;99.90
12043;DHT22;6082;49.306;12.862;2024-01-30T08:10:15;-2.80;99.90
12043;DHT22;6082;49.306;12.862;2024-01-30T08:12:41;-2.70;99.90
12043;DHT22;6082;49.306;12.862;2024-01-30T08:15:07;-2.70;99.90
12043;DHT22;6082;49.306;12.862;2024-01-30T08:17:34;-2.60;99.90
12043;DHT22;6082;49.306;12.862;2024-01-30T08:19:59;-2.60;99.90
12043;DHT22;6082;49.306;12.862;2024-01-30T08:22:25;-2.50;99.90
12043;DHT22;6082;49.306;12.862;2024-01-30T08:24:51;-2.40;99.90
12043;DHT22;6082;49.306;12.862;2024-01-30T08:27:17;-2.30;99.90
12043;DHT22;6082;49.306;12.862;2024-01-30T08:29:43;-2.30;99.90
12043;DHT22;6082;49.306;12.862;2024-01-30T08:32:09;-2.20;99.90
12043;DHT22;6082;49.306;12.862;2024-01-30T08:34:34;-2.20;99.90
12043;DHT22;6082;49.306;12.862;2024-01-30T08:37:00;-2.10;99.90
12043;DHT22;6082;49.306;12.862;2024-01-30T08:39:26;-2.10;99.90
12043;DHT22;6082;49.306;12.862;2024-01-30T08:41:52;-1.90;99.90
12043;DHT22;6082;49.306;12.862;2024-01-30T08:44:17;-1.90;99.90
12043;DHT22;6082;49.306;12.862;2024-01-30T08:46:44;-1.80;99.90
12043;DHT22;6082;49.306;12.862;2024-01-30T08:49:14;-1.80;99.90
12043;DHT22;6082;49.306;12.862;2024-01-30T08:51:41;-1.80;99.90
12043;DHT22;6082;49.306;12.862;2024-01-30T08:54:07;-1.70;99.90
12043;DHT22;6082;49.306;12.862;2024-01-30T08:56:33;-1.60;99.90
12043;DHT22;6082;49.306;12.862;2024-01-30T08:58:59;-1.50;99.90
12043;DHT22;6082;49.306;12.862;2024-01-30T09:01:25;-1.40;99.90
12043;DHT22;6082;49.306;12.862;2024-01-30T09:03:52;-1.20;99.90
12043;DHT22;6082;49.306;12.862;2024-01-30T09:06:17;-1.20;99.90
12043;DHT22;6082;49.306;12.862;2024-01-30T09:08:43;-1.20;99.90
12043;DHT22;6082;49.306;12.862;2024-01-30T09:11:13;-1.10;99.90
12043;DHT22;6082;49.306;12.862;2024-01-30T09:13:39;-1.00;99.90
12043;DHT22;6082;49.306;12.862;2024-01-30T09:16:06;-1.00;99.90
12043;DHT22;6082;49.306;12.862;2024-01-30T09:18:32;-0.90;99.90
12043;DHT22;6082;49.306;12.862;2024-01-30T09:20:57;-0.80;99.90
12043;DHT22;6082;49.306;12.862;2024-01-30T09:23:24;-0.60;99.90
12043;DHT22;6082;49.306;12.862;2024-01-30T09:25:50;-0.50;99.90
12043;DHT22;6082;49.306;12.862;2024-01-30T09:28:17;-0.50;99.90
12043;DHT22;6082;49.306;12.862;2024-01-30T09:30:43;-0.30;99.90
12043;DHT22;6082;49.306;12.862;2024-01-30T09:33:09;-0.30;99.90
12043;DHT22;6082;49.306;12.862;2024-01-30T09:35:36;-0.10;99.90
12043;DHT22;6082;49.306;12.862;2024-01-30T09:38:03;-0.10;99.90
12043;DHT22;6082;49.306;12.862;2024-01-30T09:40:29;0.00;99.90
12043;DHT22;6082;49.306;12.862;2024-01-30T09:42:55;0.00;99.90
12043;DHT22;6082;49.306;12.862;2024-01-30T09:45:25;0.10;99.90
12043;DHT22;6082;49.306;12.862;2024-01-30T09:47:52;0.20;99.90
12043;DHT22;6082;49.306;12.862;2024-01-30T09:50:19;0.30;99.90
12043;DHT22;6082;49.306;12.862;2024-01-30T09:52:46;0.30;99.90
12043;DHT22;6082;49.306;12.862;2024-01-30T09:55:12;0.30;99.90
12043;DHT22;6082;49.306;12.862;2024-01-30T09:57:38;0.30;99.90
12043;DHT22;6082;49.306;12.862;2024-01-30T10:00:05;0.40;99.90
12043;DHT22;6082;49.306;12.862;2024-01-30T10:02:35;0.50;99.90
12043;DHT22;6082;49.306;12.862;2024-01-30T10:05:01;0.70;99.90
12043;DHT22;6082;49.306;12.862;2024-01-30T10:07:27;0.80;99.90
12043;DHT22;6082;49.306;12.862;2024-01-30T10:09:53;1.00;99.90
12043;DHT22;6082;49.306;12.862;2024-01-30T10:12:22;1.10;99.90
12043;DHT22;6082;49.306;12.862;2024-01-30T10:14:48;1.10;99.90
12043;DHT22;6082;49.306;12.862;2024-01-30T10:17:14;1.10;99.90
12043;DHT22;6082;49.306;12.862;2024-01-30T10:19:40;1.20;99.90
12043;DHT22;6082;49.306;12.862;2024-01-30T10:22:06;1.20;99.90
12043;DHT22;6082;49.306;12.862;2024-01-30T10:24:36;1.20;99.90
12043;DHT22;6082;49.306;12.862;2024-01-30T10:27:02;1.30;99.90
12043;DHT22;6082;49.306;12.862;2024-01-30T10:29:28;1.40;99.90
12043;DHT22;6082;49.306;12.862;2024-01-30T10:32:05;1.50;99.90
12043;DHT22;6082;49.306;12.862;2024-01-30T10:34:31;1.50;99.90
12043;DHT22;6082;49.306;12.862;2024-01-30T10:37:05;1.70;99.90
12043;DHT22;6082;49.306;12.862;2024-01-30T10:39:38;1.70;99.90
12043;DHT22;6082;49.306;12.862;2024-01-30T10:42:04;1.80;99.90
12043;DHT22;6082;49.306;12.862;2024-01-30T10:44:37;1.80;99.90
12043;DHT22;6082;49.306;12.862;2024-01-30T10:47:07;1.80;99.90
12043;DHT22;6082;49.306;12.862;2024-01-30T10:49:37;1.90;99.90
12043;DHT22;6082;49.306;12.862;2024-01-30T10:52:04;1.90;99.90
12043;DHT22;6082;49.306;12.862;2024-01-30T10:54:31;2.00;99.90
12043;DHT22;6082;49.306;12.862;2024-01-30T10:57:00;2.10;99.90
12043;DHT22;6082;49.306;12.862;2024-01-30T10:59:28;2.10;99.90
12043;DHT22;6082;49.306;12.862;2024-01-30T11:01:54;2.20;99.90
12043;DHT22;6082;49.306;12.862;2024-01-30T11:04:20;2.30;99.90
12043;DHT22;6082;49.306;12.862;2024-01-30T11:06:49;2.40;99.90
12043;DHT22;6082;49.306;12.862;2024-01-30T11:09:17;2.60;99.90
12043;DHT22;6082;49.306;12.862;2024-01-30T11:14:15;2.70;99.90
12043;DHT22;6082;49.306;12.862;2024-01-30T11:16:41;2.80;99.90
12043;DHT22;6082;49.306;12.862;2024-01-30T11:19:11;2.90;99.90
12043;DHT22;6082;49.306;12.862;2024-01-30T11:21:43;3.00;99.90
12043;DHT22;6082;49.306;12.862;2024-01-30T11:24:09;3.10;99.90
12043;DHT22;6082;49.306;12.862;2024-01-30T11:26:35;3.20;99.90
12043;DHT22;6082;49.306;12.862;2024-01-30T11:29:06;3.30;99.90
12043;DHT22;6082;49.306;12.862;2024-01-30T11:31:32;3.30;99.90
12043;DHT22;6082;49.306;12.862;2024-01-30T11:33:58;3.30;99.90
12043;DHT22;6082;49.306;12.862;2024-01-30T11:36:25;3.40;99.90
12043;DHT22;6082;49.306;12.862;2024-01-30T11:38:52;3.40;99.90
12043;DHT22;6082;49.306;12.862;2024-01-30T11:41:20;3.40;99.90
12043;DHT22;6082;49.306;12.862;2024-01-30T11:43:53;3.50;99.90
12043;DHT22;6082;49.306;12.862;2024-01-30T11:46:19;3.50;99.90
12043;DHT22;6082;49.306;12.862;2024-01-30T11:48:44;3.60;99.90
12043;DHT22;6082;49.306;12.862;2024-01-30T11:51:13;3.60;99.90
12043;DHT22;6082;49.306;12.862;2024-01-30T11:53:39;3.70;99.90
12043;DHT22;6082;49.306;12.862;2024-01-30T11:56:06;3.70;99.90
12043;DHT22;6082;49.306;12.862;2024-01-30T11:58:32;3.80;99.90
12043;DHT22;6082;49.306;12.862;2024-01-30T12:00:58;3.90;99.90
12043;DHT22;6082;49.306;12.862;2024-01-30T12:03:25;3.90;99.90
12043;DHT22;6082;49.306;12.862;2024-01-30T12:05:58;4.00;99.90
12043;DHT22;6082;49.306;12.862;2024-01-30T12:08:24;4.10;99.90
12043;DHT22;6082;49.306;12.862;2024-01-30T12:10:57;4.10;99.90
12043;DHT22;6082;49.306;12.862;2024-01-30T12:13:27;4.20;99.90
12043;DHT22;6082;49.306;12.862;2024-01-30T12:15:53;4.30;99.90
12043;DHT22;6082;49.306;12.862;2024-01-30T12:18:19;4.40;99.90
12043;DHT22;6082;49.306;12.862;2024-01-30T12:20:45;4.40;99.90
12043;DHT22;6082;49.306;12.862;2024-01-30T12:23:14;4.50;99.90
12043;DHT22;6082;49.306;12.862;2024-01-30T12:25:40;4.60;99.90
12043;DHT22;6082;49.306;12.862;2024-01-30T12:28:06;4.60;99.90
12043;DHT22;6082;49.306;12.862;2024-01-30T12:30:35;4.70;99.90
12043;DHT22;6082;49.306;12.862;2024-01-30T12:33:00;4.70;99.90
12043;DHT22;6082;49.306;12.862;2024-01-30T12:35:27;4.80;99.90
12043;DHT22;6082;49.306;12.862;2024-01-30T12:37:54;4.90;99.90
12043;DHT22;6082;49.306;12.862;2024-01-30T12:40:20;5.00;99.90
12043;DHT22;6082;49.306;12.862;2024-01-30T12:42:48;5.10;99.90
12043;DHT22;6082;49.306;12.862;2024-01-30T12:45:14;5.30;99.90
12043;DHT22;6082;49.306;12.862;2024-01-30T12:47:41;5.40;99.90
12043;DHT22;6082;49.306;12.862;2024-01-30T12:50:07;5.50;99.90
12043;DHT22;6082;49.306;12.862;2024-01-30T12:52:35;5.50;99.90
12043;DHT22;6082;49.306;12.862;2024-01-30T12:55:01;5.60;99.90
12043;DHT22;6082;49.306;12.862;2024-01-30T12:57:27;5.60;99.90
12043;DHT22;6082;49.306;12.862;2024-01-30T12:59:52;5.70;99.90
12043;DHT22;6082;49.306;12.862;2024-01-30T13:02:18;5.80;99.90
12043;DHT22;6082;49.306;12.862;2024-01-30T13:04:44;5.80;99.90
12043;DHT22;6082;49.306;12.862;2024-01-30T13:07:10;5.90;99.90
12043;DHT22;6082;49.306;12.862;2024-01-30T13:09:36;5.80;99.90
12043;DHT22;6082;49.306;12.862;2024-01-30T13:12:03;5.90;99.90
12043;DHT22;6082;49.306;12.862;2024-01-30T13:14:29;5.90;99.90
12043;DHT22;6082;49.306;12.862;2024-01-30T13:16:55;6.00;99.90
12043;DHT22;6082;49.306;12.862;2024-01-30T13:19:20;6.00;99.90
12043;DHT22;6082;49.306;12.862;2024-01-30T13:21:46;5.90;99.90
12043;DHT22;6082;49.306;12.862;2024-01-30T13:24:13;5.90;99.90
12043;DHT22;6082;49.306;12.862;2024-01-30T13:26:39;5.90;99.90
12043;DHT22;6082;49.306;12.862;2024-01-30T13:29:05;5.90;99.90
12043;DHT22;6082;49.306;12.862;2024-01-30T13:31:31;5.90;99.90
12043;DHT22;6082;49.306;12.862;2024-01-30T13:33:57;5.90;99.90
12043;DHT22;6082;49.306;12.862;2024-01-30T13:36:23;5.90;99.90
12043;DHT22;6082;49.306;12.862;2024-01-30T13:38:48;5.90;99.90
12043;DHT22;6082;49.306;12.862;2024-01-30T13:41:14;5.90;99.90
12043;DHT22;6082;49.306;12.862;2024-01-30T13:43:40;5.90;99.90
12043;DHT22;6082;49.306;12.862;2024-01-30T13:46:09;6.00;99.90
12043;DHT22;6082;49.306;12.862;2024-01-30T13:48:35;5.90;99.90
12043;DHT22;6082;49.306;12.862;2024-01-30T13:51:01;6.00;99.90
12043;DHT22;6082;49.306;12.862;2024-01-30T13:53:26;5.90;99.90
12043;DHT22;6082;49.306;12.862;2024-01-30T13:55:53;5.90;99.90
12043;DHT22;6082;49.306;12.862;2024-01-30T13:58:18;5.90;99.90
12043;DHT22;6082;49.306;12.862;2024-01-30T14:00:44;5.90;99.90
12043;DHT22;6082;49.306;12.862;2024-01-30T14:03:11;6.00;99.90
12043;DHT22;6082;49.306;12.862;2024-01-30T14:05:37;5.90;99.90
12043;DHT22;6082;49.306;12.862;2024-01-30T14:08:03;5.90;99.90
12043;DHT22;6082;49.306;12.862;2024-01-30T14:10:29;5.90;99.90
12043;DHT22;6082;49.306;12.862;2024-01-30T14:12:56;5.90;99.90
12043;DHT22;6082;49.306;12.862;2024-01-30T14:15:22;5.90;99.90
12043;DHT22;6082;49.306;12.862;2024-01-30T14:17:47;5.90;99.90
12043;DHT22;6082;49.306;12.862;2024-01-30T14:20:15;5.80;99.90
12043;DHT22;6082;49.306;12.862;2024-01-30T14:22:44;5.90;99.90
12043;DHT22;6082;49.306;12.862;2024-01-30T14:25:10;5.90;99.90
12043;DHT22;6082;49.306;12.862;2024-01-30T14:27:36;5.90;99.90
12043;DHT22;6082;49.306;12.862;2024-01-30T14:30:05;5.90;99.90
12043;DHT22;6082;49.306;12.862;2024-01-30T14:32:31;5.80;99.90
12043;DHT22;6082;49.306;12.862;2024-01-30T14:34:57;5.80;99.90
12043;DHT22;6082;49.306;12.862;2024-01-30T14:37:23;5.80;99.90
12043;DHT22;6082;49.306;12.862;2024-01-30T14:39:49;5.80;99.90
12043;DHT22;6082;49.306;12.862;2024-01-30T14:42:15;5.80;99.90
12043;DHT22;6082;49.306;12.862;2024-01-30T14:44:41;5.80;99.90
12043;DHT22;6082;49.306;12.862;2024-01-30T14:47:08;5.80;99.90
12043;DHT22;6082;49.306;12.862;2024-01-30T14:49:33;5.80;99.90
12043;DHT22;6082;49.306;12.862;2024-01-30T14:51:59;5.80;99.90
12043;DHT22;6082;49.306;12.862;2024-01-30T14:54:26;5.80;99.90
12043;DHT22;6082;49.306;12.862;2024-01-30T14:56:53;5.70;99.90
12043;DHT22;6082;49.306;12.862;2024-01-30T14:59:19;5.70;99.90
12043;DHT22;6082;49.306;12.862;2024-01-30T15:01:44;5.70;99.90
12043;DHT22;6082;49.306;12.862;2024-01-30T15:04:10;5.70;99.90
12043;DHT22;6082;49.306;12.862;2024-01-30T15:06:37;5.60;99.90
12043;DHT22;6082;49.306;12.862;2024-01-30T15:09:03;5.60;99.90
12043;DHT22;6082;49.306;12.862;2024-01-30T15:11:28;5.60;99.90
12043;DHT22;6082;49.306;12.862;2024-01-30T15:13:54;5.60;99.90
12043;DHT22;6082;49.306;12.862;2024-01-30T15:16:20;5.60;99.90
12043;DHT22;6082;49.306;12.862;2024-01-30T15:18:46;5.60;99.90
12043;DHT22;6082;49.306;12.862;2024-01-30T15:21:12;5.50;99.90
12043;DHT22;6082;49.306;12.862;2024-01-30T15:23:38;5.50;99.90
12043;DHT22;6082;49.306;12.862;2024-01-30T15:26:03;5.50;99.90
12043;DHT22;6082;49.306;12.862;2024-01-30T15:28:39;5.50;99.90
12043;DHT22;6082;49.306;12.862;2024-01-30T15:31:05;5.50;99.90
12043;DHT22;6082;49.306;12.862;2024-01-30T15:33:32;5.50;99.90
12043;DHT22;6082;49.306;12.862;2024-01-30T15:36:02;5.50;99.90